Time;durP1;ratioP1;P1;durP2;ratioP2;P2;SDS_P1;SDS_P2;PMS_P1;PMS_P2;Temp;Humidity;BMP_temperature;BMP_pressure;BME280_temperature;BME280_humidity;BME280_pressure;Samples;Min_cycle;Max_cycle;Signal;HPM_P1;HPM_P2
2023/04/24 00:01:02;;;;;;;6.13;1.97;;;12.30;36.30;;;;;;5071805;28;20475;-67
2023/04/24 00:03:30;;;;;;;4.70;1.37;;;12.30;36.30;;;;;;5064065;28;20473;-67
2023/04/24 00:05:58;;;;;;;4.50;1.67;;;12.30;36.20;;;;;;5069552;28;20471;-67
2023/04/24 00:08:25;;;;;;;4.03;1.03;;;12.30;36.50;;;;;;5069483;28;20965;-66
2023/04/24 00:10:53;;;;;;;7.30;1.67;;;12.30;36.30;;;;;;5074168;28;20479;-66
2023/04/24 00:13:19;;;;;;;4.30;1.50;;;12.30;36.60;;;;;;5060581;28;20465;-67
2023/04/24 00:15:46;;;;;;;5.00;1.63;;;12.30;36.70;;;;;;5066643;28;20471;-68
2023/04/24 00:18:13;;;;;;;5.70;1.60;;;12.30;36.80;;;;;;5068922;28;20485;-66
2023/04/24 00:20:41;;;;;;;5.77;1.70;;;12.30;36.80;;;;;;5070926;28;20468;-67
2023/04/24 00:23:08;;;;;;;4.37;1.43;;;12.30;36.80;;;;;;5064772;28;20468;-67
2023/04/24 00:25:34;;;;;;;4.10;1.30;;;12.30;36.60;;;;;;5069825;28;20464;-69
2023/04/24 00:28:02;;;;;;;4.50;1.40;;;12.30;36.60;;;;;;5063426;28;20810;-67
2023/04/24 00:30:29;;;;;;;4.37;1.40;;;12.30;36.60;;;;;;5066558;28;20457;-67
2023/04/24 00:32:56;;;;;;;5.10;1.30;;;12.30;36.60;;;;;;5050285;28;20805;-67
2023/04/24 00:35:23;;;;;;;5.43;1.50;;;12.30;36.50;;;;;;5044891;28;20493;-66
2023/04/24 00:37:51;;;;;;;4.20;1.17;;;12.40;36.40;;;;;;5038299;28;20573;-67
2023/04/24 00:40:18;;;;;;;5.40;1.23;;;12.40;36.50;;;;;;5042769;28;20467;-67
2023/04/24 00:42:45;;;;;;;6.10;1.70;;;12.40;37.10;;;;;;5047437;28;20883;-66
2023/04/24 00:45:12;;;;;;;4.73;1.40;;;12.30;36.80;;;;;;5047001;28;20469;-67
2023/04/24 00:47:39;;;;;;;5.07;1.10;;;12.30;36.90;;;;;;5045648;28;20492;-66
2023/04/24 00:50:07;;;;;;;3.80;1.10;;;12.30;36.90;;;;;;5040254;28;20474;-67
2023/04/24 00:52:34;;;;;;;5.33;1.40;;;12.30;36.70;;;;;;5045458;28;20465;-67
2023/04/24 00:55:02;;;;;;;4.73;1.33;;;12.30;36.60;;;;;;5103372;22;20485;-66
2023/04/24 00:57:29;;;;;;;7.03;1.70;;;12.20;36.70;;;;;;5084817;28;20840;-66
2023/04/24 00:59:56;;;;;;;5.00;1.70;;;12.20;36.50;;;;;;5084297;28;21050;-66
2023/04/24 01:02:24;;;;;;;5.00;1.47;;;12.30;36.60;;;;;;5079891;28;20479;-67
2023/04/24 01:04:52;;;;;;;5.10;1.63;;;12.20;36.70;;;;;;5081839;28;20546;-67
2023/04/24 01:07:20;;;;;;;4.00;1.10;;;12.20;36.80;;;;;;5081697;28;20979;-67
2023/04/24 01:09:50;;;;;;;4.73;1.50;;;12.20;37.10;;;;;;5081340;28;20466;-67
2023/04/24 01:12:19;;;;;;;6.63;1.53;;;12.20;37.00;;;;;;5083894;28;20460;-67
2023/04/24 01:14:46;;;;;;;4.17;1.07;;;12.20;36.70;;;;;;5078414;28;20960;-67
2023/04/24 01:17:13;;;;;;;4.80;1.53;;;12.20;36.80;;;;;;5079263;28;20988;-67
2023/04/24 01:19:40;;;;;;;4.30;1.43;;;12.20;36.60;;;;;;5084412;28;20476;-67
2023/04/24 01:22:14;;;;;;;4.40;1.43;;;12.20;36.90;;;;;;5090249;28;20474;-67
2023/04/24 01:24:41;;;;;;;5.17;2.07;;;12.20;37.00;;;;;;5079042;28;20469;-67
2023/04/24 01:27:08;;;;;;;4.70;1.50;;;12.20;36.80;;;;;;5074030;28;20484;-67
2023/04/24 01:29:36;;;;;;;4.63;1.13;;;12.20;36.70;;;;;;5078036;28;20476;-67
2023/04/24 01:32:04;;;;;;;4.13;1.10;;;12.20;36.80;;;;;;5082978;27;21282;-67
2023/04/24 01:34:31;;;;;;;5.63;2.37;;;12.10;36.60;;;;;;5077504;28;21017;-68
2023/04/24 01:36:58;;;;;;;3.80;1.17;;;12.10;36.60;;;;;;5082857;28;20502;-67
2023/04/24 01:39:28;;;;;;;3.90;1.17;;;12.10;36.40;;;;;;5077077;28;20464;-67
2023/04/24 01:41:55;;;;;;;6.67;1.40;;;12.10;37.20;;;;;;5082272;28;20461;-67
2023/04/24 01:44:22;;;;;;;4.40;1.20;;;12.10;36.50;;;;;;5080089;28;20475;-67
2023/04/24 01:46:49;;;;;;;4.07;1.33;;;12.10;36.60;;;;;;5073017;28;20485;-67
2023/04/24 01:49:16;;;;;;;4.53;1.10;;;12.00;36.60;;;;;;5081078;28;20476;-67
2023/04/24 01:51:42;;;;;;;4.73;1.30;;;12.00;36.60;;;;;;5075018;28;20469;-67
2023/04/24 01:54:09;;;;;;;3.90;1.20;;;12.00;36.30;;;;;;5077249;28;20473;-67
2023/04/24 01:56:41;;;;;;;4.90;1.60;;;12.00;36.20;;;;;;5082844;28;20482;-67
2023/04/24 01:59:10;;;;;;;4.50;1.20;;;12.00;36.30;;;;;;5077718;28;20461;-67
2023/04/24 02:01:38;;;;;;;4.47;0.90;;;12.00;36.10;;;;;;5076976;28;20477;-68
2023/04/24 02:04:05;;;;;;;3.77;1.00;;;12.00;36.30;;;;;;5079750;28;20456;-67
2023/04/24 02:06:32;;;;;;;4.63;1.70;;;12.00;36.20;;;;;;5077440;28;20468;-67
2023/04/24 02:08:59;;;;;;;5.77;1.67;;;12.00;36.20;;;;;;5081899;28;20490;-67
2023/04/24 02:11:26;;;;;;;5.83;1.77;;;12.00;36.30;;;;;;5085605;28;20456;-67
2023/04/24 02:13:54;;;;;;;4.60;1.20;;;11.90;36.50;;;;;;5081628;28;20464;-67
2023/04/24 02:16:21;;;;;;;4.40;1.23;;;11.90;36.60;;;;;;5077539;28;20465;-67
2023/04/24 02:18:48;;;;;;;4.27;1.27;;;11.90;36.60;;;;;;5084527;28;20468;-67
2023/04/24 02:21:15;;;;;;;5.87;2.33;;;11.90;36.70;;;;;;5082204;28;20457;-67
2023/04/24 02:23:41;;;;;;;5.43;1.20;;;11.90;36.70;;;;;;5078790;28;20464;-67
2023/04/24 02:26:08;;;;;;;4.50;1.20;;;11.90;37.00;;;;;;5078382;28;20476;-67
2023/04/24 02:28:35;;;;;;;5.60;1.43;;;11.80;37.00;;;;;;5082857;28;20484;-67
2023/04/24 02:31:03;;;;;;;4.00;1.23;;;11.80;36.90;;;;;;5082991;27;20496;-67
2023/04/24 02:33:30;;;;;;;4.50;1.60;;;11.80;36.90;;;;;;5075492;28;20457;-67
2023/04/24 02:35:56;;;;;;;4.10;1.40;;;11.80;36.90;;;;;;5071993;28;20564;-67
2023/04/24 02:38:23;;;;;;;4.57;1.20;;;11.80;37.00;;;;;;5077506;28;20477;-67
2023/04/24 02:40:50;;;;;;;5.20;1.43;;;11.80;36.90;;;;;;5085410;28;20456;-67
2023/04/24 02:43:17;;;;;;;5.33;1.70;;;11.80;36.70;;;;;;5085082;28;20806;-67
2023/04/24 02:45:43;;;;;;;5.00;2.53;;;11.90;36.60;;;;;;5074042;28;20461;-67
2023/04/24 02:48:12;;;;;;;4.57;1.30;;;11.90;36.50;;;;;;5082128;28;20486;-67
2023/04/24 02:50:39;;;;;;;3.93;1.10;;;11.90;36.50;;;;;;5082484;28;20479;-67
2023/04/24 02:53:06;;;;;;;4.50;1.03;;;11.90;36.30;;;;;;5074629;28;20457;-68
2023/04/24 02:55:33;;;;;;;4.50;1.67;;;11.90;36.20;;;;;;5083053;28;20987;-67
2023/04/24 02:57:59;;;;;;;7.30;1.80;;;11.90;35.90;;;;;;5085252;28;20475;-68
2023/04/24 03:00:26;;;;;;;4.40;1.30;;;11.90;36.10;;;;;;5081142;27;20950;-67
2023/04/24 03:02:53;;;;;;;4.47;1.63;;;11.90;36.30;;;;;;5084640;28;20456;-67
2023/04/24 03:05:21;;;;;;;4.40;1.70;;;11.90;36.30;;;;;;5073290;28;20500;-67
2023/04/24 03:07:48;;;;;;;4.13;1.40;;;11.80;36.20;;;;;;5076288;28;20853;-67
2023/04/24 03:10:15;;;;;;;5.70;1.50;;;11.80;36.30;;;;;;5081218;28;20457;-67
2023/04/24 03:12:41;;;;;;;4.60;1.70;;;11.80;36.40;;;;;;5079565;28;20464;-67
2023/04/24 03:15:09;;;;;;;4.37;1.50;;;11.80;36.30;;;;;;5072385;28;20457;-68
2023/04/24 03:17:36;;;;;;;4.60;1.40;;;11.80;36.50;;;;;;5075409;28;20845;-68
2023/04/24 03:20:05;;;;;;;8.80;2.37;;;11.80;36.60;;;;;;5080038;28;20453;-67
2023/04/24 03:22:33;;;;;;;6.20;1.63;;;11.80;36.60;;;;;;5073611;28;21132;-67
2023/04/24 03:25:00;;;;;;;5.07;1.57;;;11.80;36.50;;;;;;5077337;28;20457;-67
2023/04/24 03:27:27;;;;;;;4.40;1.60;;;11.70;36.60;;;;;;5075167;28;20464;-67
2023/04/24 03:29:55;;;;;;;4.30;1.60;;;11.80;36.50;;;;;;5077842;28;20488;-68
2023/04/24 03:32:22;;;;;;;4.30;1.50;;;11.70;36.60;;;;;;5078308;28;20481;-67
2023/04/24 03:34:49;;;;;;;5.90;2.20;;;11.70;36.80;;;;;;5074824;28;20457;-67
2023/04/24 03:37:16;;;;;;;4.77;2.10;;;11.70;37.30;;;;;;5074502;28;20476;-67
2023/04/24 03:39:44;;;;;;;7.83;1.87;;;11.70;37.00;;;;;;5081828;28;20468;-67
2023/04/24 03:42:11;;;;;;;5.10;1.60;;;11.70;37.00;;;;;;5075749;28;20457;-67
2023/04/24 03:44:38;;;;;;;4.33;1.80;;;11.70;37.10;;;;;;5074279;28;20850;-67
2023/04/24 03:47:05;;;;;;;4.60;1.63;;;11.70;37.20;;;;;;5076701;28;20841;-67
2023/04/24 03:49:31;;;;;;;4.63;1.30;;;11.70;37.00;;;;;;5080048;28;21247;-68
2023/04/24 03:51:58;;;;;;;5.00;2.00;;;11.70;36.90;;;;;;5080520;28;20472;-67
2023/04/24 03:54:25;;;;;;;5.50;1.67;;;11.70;37.20;;;;;;5082116;28;20480;-67
2023/04/24 03:56:53;;;;;;;4.53;1.70;;;11.70;36.90;;;;;;5086369;28;20491;-67
2023/04/24 03:59:19;;;;;;;6.20;1.60;;;11.70;36.90;;;;;;5073745;28;20461;-67
2023/04/24 04:01:46;;;;;;;6.37;1.47;;;11.70;37.00;;;;;;5079052;28;20464;-67
2023/04/24 04:04:13;;;;;;;5.70;1.87;;;11.70;36.80;;;;;;5077276;28;20463;-66
2023/04/24 04:06:40;;;;;;;5.10;1.57;;;11.70;36.80;;;;;;5077414;28;20465;-66
2023/04/24 04:09:07;;;;;;;4.20;1.60;;;11.70;37.00;;;;;;5084630;28;21050;-66
2023/04/24 04:11:35;;;;;;;4.73;1.73;;;11.70;37.20;;;;;;5077955;28;20493;-66
2023/04/24 04:14:03;;;;;;;4.73;1.57;;;11.70;37.20;;;;;;5081089;28;20799;-66
2023/04/24 04:16:30;;;;;;;4.83;1.80;;;11.70;36.90;;;;;;5082405;28;20461;-67
2023/04/24 04:18:57;;;;;;;5.03;1.93;;;11.70;36.90;;;;;;5078492;28;20460;-66
2023/04/24 04:21:23;;;;;;;4.00;1.30;;;11.70;36.60;;;;;;5088142;28;20468;-67
2023/04/24 04:23:50;;;;;;;9.57;1.30;;;11.70;36.60;;;;;;5082302;28;20467;-66
2023/04/24 04:26:18;;;;;;;3.93;1.10;;;11.70;36.60;;;;;;5081294;28;20456;-67
2023/04/24 04:28:45;;;;;;;3.77;1.17;;;11.70;36.50;;;;;;5083665;28;20564;-66
2023/04/24 04:31:13;;;;;;;4.83;1.60;;;11.70;36.40;;;;;;5084553;28;20833;-66
2023/04/24 04:33:40;;;;;;;4.53;1.30;;;11.70;36.10;;;;;;5086527;28;20454;-66
2023/04/24 04:36:07;;;;;;;5.23;1.23;;;11.70;36.00;;;;;;5089723;28;20453;-67
2023/04/24 04:38:34;;;;;;;5.80;1.40;;;11.60;36.20;;;;;;5078544;28;20469;-66
2023/04/24 04:41:02;;;;;;;4.00;1.20;;;11.60;36.30;;;;;;5085442;28;20983;-66
2023/04/24 04:43:28;;;;;;;4.33;1.20;;;11.60;36.20;;;;;;5083115;28;20457;-66
2023/04/24 04:45:55;;;;;;;4.67;1.97;;;11.60;36.40;;;;;;5078651;28;20541;-66
2023/04/24 04:48:23;;;;;;;4.17;1.20;;;11.60;36.00;;;;;;5083204;28;20476;-66
2023/04/24 04:50:50;;;;;;;4.70;1.20;;;11.60;36.30;;;;;;5081888;28;20460;-66
2023/04/24 04:53:17;;;;;;;4.80;1.17;;;11.60;36.10;;;;;;5076948;28;20495;-67
2023/04/24 04:55:44;;;;;;;4.70;0.80;;;11.70;35.70;;;;;;5081304;28;20468;-67
2023/04/24 04:58:10;;;;;;;3.90;0.87;;;11.70;35.80;;;;;;5087280;28;20835;-67
2023/04/24 05:00:37;;;;;;;3.77;0.90;;;11.70;35.60;;;;;;5085765;28;20470;-67
2023/04/24 05:03:05;;;;;;;3.70;0.77;;;11.70;35.40;;;;;;5082027;28;20468;-66
2023/04/24 05:05:33;;;;;;;3.77;0.77;;;11.70;35.00;;;;;;5086363;28;20452;-66
2023/04/24 05:07:59;;;;;;;4.10;1.00;;;11.70;35.00;;;;;;5081883;28;20489;-66
2023/04/24 05:10:26;;;;;;;4.37;1.00;;;11.70;35.30;;;;;;5075605;28;20531;-66
2023/04/24 05:12:53;;;;;;;3.93;0.70;;;11.60;35.40;;;;;;5080770;28;20461;-67
2023/04/24 05:15:19;;;;;;;5.40;0.80;;;11.60;35.80;;;;;;5086460;28;20462;-66
2023/04/24 05:17:46;;;;;;;4.27;1.20;;;11.60;35.50;;;;;;5084553;28;20477;-66
2023/04/24 05:20:14;;;;;;;3.57;0.67;;;11.60;35.30;;;;;;5087053;28;21131;-66
2023/04/24 05:22:42;;;;;;;4.10;0.93;;;11.60;35.50;;;;;;5078094;28;20952;-66
2023/04/24 05:25:09;;;;;;;3.97;0.90;;;11.60;35.50;;;;;;5085196;28;20543;-66
2023/04/24 05:27:36;;;;;;;3.50;0.70;;;11.60;35.60;;;;;;5089192;28;20483;-66
2023/04/24 05:30:03;;;;;;;4.70;0.90;;;11.60;36.00;;;;;;5082038;28;20491;-66
2023/04/24 05:32:29;;;;;;;4.03;0.70;;;11.60;34.80;;;;;;5083048;27;20484;-66
2023/04/24 05:34:56;;;;;;;3.40;0.60;;;11.70;34.50;;;;;;5084175;28;20459;-66
2023/04/24 05:37:23;;;;;;;4.17;0.90;;;11.70;34.40;;;;;;5076484;22;20502;-67
2023/04/24 05:39:51;;;;;;;4.33;0.80;;;11.70;34.30;;;;;;5067238;28;20458;-67
2023/04/24 05:42:17;;;;;;;3.70;0.90;;;11.70;34.50;;;;;;5067411;28;20954;-67
2023/04/24 05:44:44;;;;;;;3.50;0.80;;;11.80;34.40;;;;;;5068189;28;20536;-66
2023/04/24 05:47:11;;;;;;;4.03;0.83;;;11.80;33.90;;;;;;5066163;28;20477;-66
2023/04/24 05:49:37;;;;;;;5.03;0.70;;;11.80;33.80;;;;;;5065456;28;20480;-67
2023/04/24 05:52:06;;;;;;;3.60;0.70;;;11.90;33.50;;;;;;5089327;22;20469;-66
2023/04/24 05:54:33;;;;;;;4.60;0.90;;;12.00;33.20;;;;;;5042490;28;20594;-66
2023/04/24 05:57:07;;;;;;;4.60;0.90;;;12.00;33.10;;;;;;5044308;28;20467;-66
2023/04/24 05:59:33;;;;;;;3.90;0.90;;;12.10;32.90;;;;;;5045702;28;20462;-66
2023/04/24 06:02:00;;;;;;;9.33;0.90;;;12.10;32.90;;;;;;5042232;28;20467;-66
2023/04/24 06:04:27;;;;;;;5.80;0.80;;;12.10;32.60;;;;;;5035192;28;20542;-66
2023/04/24 06:06:55;;;;;;;4.10;0.83;;;12.10;32.30;;;;;;5035990;28;20459;-66
2023/04/24 06:09:22;;;;;;;4.83;0.80;;;12.20;32.30;;;;;;5034980;28;20899;-66
2023/04/24 06:11:49;;;;;;;3.70;0.80;;;12.20;32.00;;;;;;5045859;28;20492;-66
2023/04/24 06:14:17;;;;;;;3.63;0.83;;;12.30;31.90;;;;;;5031046;28;20474;-66
2023/04/24 06:16:44;;;;;;;3.70;0.70;;;12.30;31.80;;;;;;5030912;28;20470;-67
2023/04/24 06:19:11;;;;;;;3.60;0.77;;;12.30;31.70;;;;;;5046608;28;20953;-66
2023/04/24 06:21:38;;;;;;;4.53;0.90;;;12.30;31.40;;;;;;5038800;28;20466;-66
2023/04/24 06:24:05;;;;;;;3.40;0.60;;;12.30;31.90;;;;;;5046247;28;20826;-65
2023/04/24 06:26:31;;;;;;;4.67;0.90;;;12.30;32.20;;;;;;5040570;28;20462;-66
2023/04/24 06:29:00;;;;;;;4.13;1.00;;;12.20;32.20;;;;;;5040032;28;20481;-66
2023/04/24 06:31:28;;;;;;;4.73;0.80;;;12.20;32.50;;;;;;5042909;28;20478;-66
2023/04/24 06:33:54;;;;;;;3.40;0.70;;;12.30;32.80;;;;;;5034349;28;20477;-66
2023/04/24 06:36:21;;;;;;;3.60;0.70;;;12.20;33.00;;;;;;5037985;28;20921;-66
2023/04/24 06:38:48;;;;;;;3.80;0.80;;;12.10;33.10;;;;;;5040766;28;20855;-66
2023/04/24 06:41:15;;;;;;;3.70;0.77;;;12.10;32.60;;;;;;5039792;28;20462;-65
2023/04/24 06:43:41;;;;;;;4.67;0.90;;;12.00;32.70;;;;;;5047637;28;20471;-66
2023/04/24 06:46:08;;;;;;;3.73;0.73;;;12.00;31.30;;;;;;5044543;28;20546;-65
2023/04/24 06:48:36;;;;;;;3.80;0.80;;;12.00;31.40;;;;;;5039393;28;20521;-65
2023/04/24 06:51:03;;;;;;;3.70;1.00;;;11.90;31.90;;;;;;5040123;28;20490;-65
2023/04/24 06:53:30;;;;;;;3.87;0.80;;;12.00;31.60;;;;;;5038608;28;20473;-65
2023/04/24 06:55:57;;;;;;;5.03;0.90;;;11.90;31.70;;;;;;5041019;28;20946;-66
2023/04/24 06:58:25;;;;;;;4.03;1.17;;;12.00;31.60;;;;;;5034225;28;20483;-65
2023/04/24 07:00:51;;;;;;;4.63;1.13;;;12.00;31.80;;;;;;5039360;28;20481;-65
2023/04/24 07:03:18;;;;;;;4.93;1.17;;;11.90;31.80;;;;;;5035107;28;21212;-65
2023/04/24 07:05:47;;;;;;;4.27;1.20;;;11.90;31.90;;;;;;5039773;28;20472;-66
2023/04/24 07:08:16;;;;;;;4.50;1.27;;;11.90;31.90;;;;;;5034559;28;20574;-66
2023/04/24 07:10:43;;;;;;;3.90;0.90;;;12.00;31.60;;;;;;5044520;28;20510;-66
2023/04/24 07:13:10;;;;;;;5.40;1.40;;;12.00;31.60;;;;;;5040261;28;20470;-66
2023/04/24 07:15:37;;;;;;;4.30;1.50;;;11.90;31.00;;;;;;5041302;28;20478;-67
2023/04/24 07:18:03;;;;;;;5.53;2.00;;;11.90;30.80;;;;;;5037676;28;20488;-66
2023/04/24 07:20:30;;;;;;;5.80;1.50;;;11.90;30.50;;;;;;5039044;28;20459;-66
2023/04/24 07:22:58;;;;;;;4.63;1.47;;;11.80;30.20;;;;;;5039027;28;20474;-66
2023/04/24 07:25:25;;;;;;;4.93;1.93;;;11.80;30.10;;;;;;5037387;28;20455;-66
2023/04/24 07:27:52;;;;;;;4.50;1.63;;;11.80;30.20;;;;;;5043230;28;20481;-66
2023/04/24 07:30:19;;;;;;;5.90;1.53;;;11.80;30.30;;;;;;5047669;28;20482;-66
2023/04/24 07:32:46;;;;;;;4.40;1.50;;;12.00;30.20;;;;;;5037854;28;20459;-66
2023/04/24 07:35:13;;;;;;;5.90;1.83;;;12.10;29.70;;;;;;5056672;28;20470;-67
2023/04/24 07:37:40;;;;;;;4.77;2.10;;;12.30;29.40;;;;;;5057668;28;20477;-66
2023/04/24 07:40:09;;;;;;;4.00;1.47;;;12.60;28.40;;;;;;5053610;28;20962;-66
2023/04/24 07:42:36;;;;;;;4.13;1.30;;;13.00;27.10;;;;;;5048194;28;20465;-66
2023/04/24 07:45:03;;;;;;;4.53;1.80;;;13.40;25.90;;;;;;5036915;28;20468;-66
2023/04/24 07:47:30;;;;;;;6.00;1.60;;;13.50;24.30;;;;;;5039329;28;20535;-65
2023/04/24 07:49:56;;;;;;;4.30;1.30;;;13.70;23.50;;;;;;5043268;28;20529;-67
2023/04/24 07:52:24;;;;;;;5.30;1.83;;;14.00;21.90;;;;;;5040686;28;20478;-66
2023/04/24 07:54:52;;;;;;;4.30;1.30;;;14.70;20.30;;;;;;5039492;28;20466;-67
2023/04/24 07:57:20;;;;;;;3.87;1.10;;;15.80;18.50;;;;;;5036141;28;20959;-67
2023/04/24 07:59:47;;;;;;;5.47;1.90;;;17.90;14.70;;;;;;5037505;28;20458;-67
2023/04/24 08:02:14;;;;;;;4.40;1.47;;;20.20;10.40;;;;;;5044897;28;20492;-67
2023/04/24 08:04:41;;;;;;;4.30;1.20;;;22.40;6.60;;;;;;5042907;28;20458;-67
2023/04/24 08:07:08;;;;;;;4.10;1.60;;;25.20;1.40;;;;;;5038430;28;20529;-68
2023/04/24 08:09:34;;;;;;;4.90;1.67;;;27.50;1.00;;;;;;5042079;28;20462;-68
2023/04/24 08:12:02;;;;;;;4.70;1.43;;;29.60;1.00;;;;;;5036843;28;20463;-67
2023/04/24 08:14:30;;;;;;;4.00;1.57;;;31.60;1.00;;;;;;5040976;28;20469;-69
2023/04/24 08:16:57;;;;;;;3.97;1.40;;;33.10;1.00;;;;;;5047593;28;20666;-68
2023/04/24 08:19:23;;;;;;;4.47;1.47;;;33.80;1.00;;;;;;5036071;28;20471;-69
2023/04/24 08:21:50;;;;;;;4.20;1.50;;;34.00;1.00;;;;;;5049074;28;20829;-68
2023/04/24 08:24:17;;;;;;;4.50;1.90;;;34.00;1.00;;;;;;5040608;28;20472;-68
2023/04/24 08:26:44;;;;;;;3.70;1.40;;;34.90;1.00;;;;;;5041052;28;20474;-68
2023/04/24 08:29:10;;;;;;;3.83;1.40;;;36.40;1.00;;;;;;5037881;28;20459;-69
2023/04/24 08:31:38;;;;;;;4.90;1.43;;;37.90;1.00;;;;;;5039347;28;20481;-69
2023/04/24 08:34:05;;;;;;;4.37;1.30;;;38.40;1.00;;;;;;5042880;28;20458;-68
2023/04/24 08:36:33;;;;;;;3.50;1.13;;;37.80;1.00;;;;;;5044193;28;20469;-68
2023/04/24 08:39:00;;;;;;;5.03;1.40;;;37.20;1.00;;;;;;5039297;28;20506;-68
2023/04/24 08:41:28;;;;;;;4.10;1.40;;;36.40;1.00;;;;;;5039000;28;20500;-68
2023/04/24 08:43:57;;;;;;;5.50;1.50;;;34.40;1.00;;;;;;5042797;28;20880;-68
2023/04/24 08:46:25;;;;;;;7.40;1.50;;;33.30;1.00;;;;;;5041306;28;20468;-68
2023/04/24 08:48:54;;;;;;;3.70;1.10;;;33.30;1.00;;;;;;5047978;28;20862;-68
2023/04/24 08:51:21;;;;;;;4.23;1.27;;;34.30;1.00;;;;;;5042170;28;20839;-68
2023/04/24 08:53:48;;;;;;;4.17;1.60;;;33.40;1.00;;;;;;5044512;28;20947;-68
2023/04/24 08:56:16;;;;;;;4.10;1.40;;;31.20;1.00;;;;;;5042061;28;20973;-68
2023/04/24 08:58:43;;;;;;;4.00;1.33;;;31.40;1.00;;;;;;5047602;28;20484;-68
2023/04/24 09:01:10;;;;;;;4.80;1.53;;;33.40;1.00;;;;;;5037977;28;20473;-68
2023/04/24 09:03:37;;;;;;;4.40;1.33;;;34.00;1.00;;;;;;5046098;28;20461;-68
2023/04/24 09:06:08;;;;;;;5.27;1.30;;;32.60;1.00;;;;;;5042047;28;20454;-68
2023/04/24 09:08:36;;;;;;;3.50;1.13;;;30.30;1.00;;;;;;5040875;28;20483;-68
2023/04/24 09:11:03;;;;;;;6.67;1.00;;;28.30;1.00;;;;;;5035732;28;21219;-68
2023/04/24 09:13:31;;;;;;;3.87;1.03;;;26.40;1.00;;;;;;5041809;28;20493;-67
2023/04/24 09:16:00;;;;;;;3.93;1.17;;;25.00;1.00;;;;;;5041593;28;20471;-67
2023/04/24 09:18:27;;;;;;;4.37;1.30;;;23.70;1.00;;;;;;5041727;28;20559;-66
2023/04/24 09:21:01;;;;;;;3.70;1.20;;;22.50;1.00;;;;;;5040497;28;20482;-67
2023/04/24 09:23:31;;;;;;;4.50;1.20;;;21.40;1.00;;;;;;5039679;28;20465;-68
2023/04/24 09:26:00;;;;;;;3.87;1.17;;;20.70;1.00;;;;;;5040833;28;20469;-67
2023/04/24 09:28:30;;;;;;;4.57;1.00;;;20.10;2.00;;;;;;5040805;28;20559;-67
2023/04/24 09:31:05;;;;;;;3.77;1.00;;;19.60;3.00;;;;;;5044338;28;21002;-66
2023/04/24 09:33:31;;;;;;;4.43;1.00;;;19.00;3.80;;;;;;5038300;28;20462;-66
2023/04/24 09:35:59;;;;;;;3.53;0.70;;;18.60;4.80;;;;;;5042277;28;20461;-68
2023/04/24 09:38:33;;;;;;;3.70;0.90;;;18.50;5.50;;;;;;5040184;28;20509;-66
2023/04/24 09:41:02;;;;;;;3.87;1.30;;;18.50;5.50;;;;;;5046109;28;20973;-67
2023/04/24 09:43:29;;;;;;;5.33;0.97;;;19.10;5.20;;;;;;5038434;28;21281;-67
2023/04/24 09:45:58;;;;;;;3.80;1.13;;;21.60;3.00;;;;;;5044342;28;20463;-67
2023/04/24 09:48:32;;;;;;;8.80;1.40;;;25.40;1.00;;;;;;5045590;28;20492;-67
2023/04/24 09:50:58;;;;;;;4.23;1.30;;;28.90;1.00;;;;;;5046559;28;20993;-68
2023/04/24 09:53:26;;;;;;;4.20;1.33;;;31.20;1.00;;;;;;5038993;28;21072;-68
2023/04/24 09:55:54;;;;;;;3.40;0.90;;;33.20;1.00;;;;;;5042237;28;21072;-68
2023/04/24 09:58:26;;;;;;;6.20;1.30;;;34.00;1.00;;;;;;5042405;28;20501;-68
2023/04/24 10:00:55;;;;;;;5.87;1.10;;;32.10;1.00;;;;;;5048453;28;20474;-68
2023/04/24 10:03:24;;;;;;;4.20;1.20;;;30.10;1.00;;;;;;5048053;28;20462;-67
2023/04/24 10:05:52;;;;;;;3.50;1.07;;;31.20;1.00;;;;;;5041046;28;20490;-67
2023/04/24 10:08:19;;;;;;;3.80;1.00;;;30.60;1.00;;;;;;5040913;28;20478;-67
2023/04/24 10:10:47;;;;;;;6.80;1.40;;;29.10;1.00;;;;;;5034339;28;20490;-67
2023/04/24 10:13:16;;;;;;;3.50;1.10;;;26.80;1.00;;;;;;5038464;28;20462;-67
2023/04/24 10:15:43;;;;;;;3.80;1.37;;;24.80;1.00;;;;;;5037088;28;20497;-67
2023/04/24 10:18:11;;;;;;;4.10;1.20;;;23.10;1.00;;;;;;5033135;28;20522;-67
2023/04/24 10:20:40;;;;;;;4.37;1.03;;;21.90;1.00;;;;;;5033780;28;20472;-67
2023/04/24 10:23:07;;;;;;;5.07;1.10;;;21.50;1.00;;;;;;5043052;28;20467;-67
2023/04/24 10:25:35;;;;;;;7.43;1.30;;;22.40;1.00;;;;;;5038631;28;20482;-67
2023/04/24 10:28:03;;;;;;;3.90;1.00;;;23.70;1.00;;;;;;5036424;28;20481;-66
2023/04/24 10:30:34;;;;;;;3.97;1.20;;;25.20;1.00;;;;;;5035926;28;20485;-67
2023/04/24 10:33:01;;;;;;;5.00;1.13;;;26.30;1.00;;;;;;5033010;28;20820;-67
2023/04/24 10:35:32;;;;;;;4.60;1.77;;;25.80;1.00;;;;;;5035116;28;20462;-68
2023/04/24 10:38:03;;;;;;;3.70;0.90;;;24.40;1.00;;;;;;5046976;28;20527;-68
2023/04/24 10:40:33;;;;;;;5.00;1.10;;;23.00;1.00;;;;;;5058320;28;20450;-67
2023/04/24 10:43:03;;;;;;;4.87;1.57;;;21.90;1.00;;;;;;5049102;28;20814;-67
2023/04/24 10:45:31;;;;;;;4.03;1.20;;;21.10;1.00;;;;;;5037107;28;20467;-67
2023/04/24 10:48:00;;;;;;;4.70;1.10;;;20.40;1.00;;;;;;5029812;28;20493;-67
2023/04/24 10:50:29;;;;;;;5.10;1.30;;;19.80;1.00;;;;;;5033673;28;20467;-67
2023/04/24 10:53:06;;;;;;;4.23;1.13;;;19.40;1.60;;;;;;5047820;28;20553;-67
2023/04/24 10:55:45;;;;;;;4.03;1.10;;;19.00;2.70;;;;;;5035339;28;20463;-67
2023/04/24 10:58:12;;;;;;;3.90;1.10;;;18.80;2.40;;;;;;5034733;28;20489;-67
2023/04/24 11:00:42;;;;;;;4.10;1.30;;;18.50;3.90;;;;;;5032764;28;20456;-68
2023/04/24 11:03:23;;;;;;;4.30;1.30;;;18.50;4.10;;;;;;5036230;28;20463;-68
2023/04/24 11:06:08;;;;;;;5.83;1.30;;;18.30;2.90;;;;;;5031196;28;20466;-67
2023/04/24 11:08:43;;;;;;;5.60;2.30;;;18.10;3.80;;;;;;5044656;28;20481;-66
2023/04/24 11:11:11;;;;;;;5.47;1.77;;;17.90;4.40;;;;;;5039076;28;20484;-67
2023/04/24 11:14:10;;;;;;;3.80;1.07;;;17.70;5.70;;;;;;5035563;28;20465;-66
2023/04/24 11:16:44;;;;;;;5.43;1.33;;;17.30;6.10;;;;;;5033262;28;20471;-67
2023/04/24 11:19:18;;;;;;;4.00;1.30;;;17.20;8.00;;;;;;5043332;28;20543;-66
2023/04/24 11:21:47;;;;;;;3.90;1.33;;;17.30;8.70;;;;;;5042355;28;20888;-66
2023/04/24 11:24:32;;;;;;;3.77;1.30;;;17.40;9.90;;;;;;5037319;28;20455;-67
2023/04/24 11:27:01;;;;;;;4.40;1.47;;;17.50;10.00;;;;;;5036194;28;20473;-66
2023/04/24 11:29:45;;;;;;;4.40;1.23;;;17.50;9.30;;;;;;5038451;28;20879;-68
2023/04/24 11:32:27;;;;;;;4.77;1.53;;;17.60;8.90;;;;;;5038670;28;20561;-67
2023/04/24 11:34:55;;;;;;;7.50;2.10;;;17.70;8.10;;;;;;5039597;28;20461;-67
2023/04/24 11:37:23;;;;;;;4.60;1.10;;;17.70;8.50;;;;;;5030668;28;20494;-67
2023/04/24 11:39:52;;;;;;;7.30;1.50;;;17.70;6.30;;;;;;5037647;28;20463;-67
2023/04/24 11:42:20;;;;;;;3.87;1.30;;;17.70;7.10;;;;;;5044796;28;20465;-67
2023/04/24 11:44:48;;;;;;;5.13;1.47;;;17.60;6.40;;;;;;5048039;28;20962;-67
2023/04/24 11:47:15;;;;;;;4.17;1.47;;;17.60;8.40;;;;;;5035282;28;20893;-67
2023/04/24 11:49:43;;;;;;;5.90;1.70;;;17.60;7.60;;;;;;5059160;28;20465;-67
2023/04/24 11:52:10;;;;;;;4.00;1.33;;;17.50;5.90;;;;;;5036892;28;20483;-66
2023/04/24 11:54:37;;;;;;;5.37;1.30;;;17.30;5.80;;;;;;5040459;28;20469;-66
2023/04/24 11:57:05;;;;;;;4.23;1.67;;;17.10;5.80;;;;;;5034737;28;20478;-67
2023/04/24 11:59:36;;;;;;;5.53;1.37;;;16.90;7.00;;;;;;5040667;28;20470;-67
2023/04/24 12:02:04;;;;;;;4.00;1.20;;;16.70;6.80;;;;;;5037539;28;20996;-67
2023/04/24 12:04:40;;;;;;;3.80;1.20;;;16.50;7.00;;;;;;5036719;28;20489;-66
2023/04/24 12:07:09;;;;;;;4.20;1.30;;;16.40;7.50;;;;;;5035918;28;20541;-67
2023/04/24 12:09:42;;;;;;;7.33;1.40;;;16.40;7.40;;;;;;5033532;28;20458;-67
2023/04/24 12:12:09;;;;;;;3.90;1.00;;;16.30;6.80;;;;;;5042626;28;20908;-66
2023/04/24 12:14:48;;;;;;;4.10;1.03;;;16.20;6.60;;;;;;5039287;28;20466;-66
2023/04/24 12:17:15;;;;;;;4.90;1.20;;;16.20;6.40;;;;;;5035907;28;20482;-67
2023/04/24 12:19:47;;;;;;;4.37;1.10;;;16.10;6.30;;;;;;5044056;28;20470;-66
2023/04/24 12:22:15;;;;;;;4.50;1.43;;;16.00;4.80;;;;;;5042549;28;20454;-66
2023/04/24 12:25:01;;;;;;;3.77;1.00;;;15.80;5.10;;;;;;5045156;28;20469;-66
2023/04/24 12:27:31;;;;;;;4.87;1.57;;;15.60;6.00;;;;;;5046638;28;20487;-65
2023/04/24 12:29:59;;;;;;;4.57;1.70;;;15.70;6.60;;;;;;5042289;28;20493;-66
2023/04/24 12:32:27;;;;;;;7.40;1.43;;;15.60;6.50;;;;;;5044427;28;20489;-66
2023/04/24 12:34:54;;;;;;;4.00;1.10;;;15.80;7.40;;;;;;5035329;28;20462;-66
2023/04/24 12:37:24;;;;;;;6.07;1.80;;;15.90;7.00;;;;;;5039542;28;20477;-67
2023/04/24 12:40:01;;;;;;;6.90;1.60;;;16.00;6.10;;;;;;5035780;28;20465;-67
2023/04/24 12:42:29;;;;;;;5.20;1.40;;;16.10;6.00;;;;;;5039905;28;20467;-67
2023/04/24 12:44:59;;;;;;;6.10;1.40;;;16.20;4.70;;;;;;5041498;28;20453;-67
2023/04/24 12:47:26;;;;;;;4.80;1.50;;;16.10;3.20;;;;;;5036294;28;21188;-66
2023/04/24 12:49:53;;;;;;;7.10;1.73;;;15.90;3.80;;;;;;5036718;28;20459;-65
2023/04/24 12:52:20;;;;;;;5.97;1.57;;;15.80;4.30;;;;;;5042528;28;20483;-66
2023/04/24 12:54:48;;;;;;;4.60;1.53;;;15.70;5.30;;;;;;5040183;28;20469;-66